Terminal Aerodrome Forecast
Issued by NWS Nashville, TN

Home | Current Version | Previous Version | Text Only | Print | Product List | Glossary On
Versions: 1 2 3 4 5 6 7 8 9 10 11 12 13 14 15 16 17 18 19 20 21 22 23 24 25 26 27 28 29 30 31 32 33 34
000
FTUS44 KOHX 292300
TAFCSV
TAF
KCSV 292325Z 3000/3024 VRB03KT P6SM BKN070
      TEMPO 3008/3011 2SM BR
     FM301500 17009G18KT P6SM SCT030 BKN120 PROB30 3022/3024 5SM
      -SHRA OVC030=

USA.gov is the U.S. government's official web portal to all federal, state and local government web resources and services.